Steptoe Valley WMA, Nevada Weather observations

Data are for 10 minute period ending at time listed.
 Day   Time   Solar   Ave.   Ave.  Ave.  Vector  Max.   Baro.   Total    
  of    of     Rad.   Air    Rel.  Wind   Wind   Wind  Press.  Precip.   
Year   Day            Temp.  Hum.  Speed  Dir.   Gust                    
2015   (PST)  Kw/m2    F      %     mph   deg.    mph    mb.     in.     
-------------------------------------------------------------------------
 245    8:00   0.58   71.9    37   12.9   182    20.8   804.5    0.00 
 245    8:10   0.58   71.6    38   13.1   196    20.0   804.6    0.00 
 245    8:20   0.53   71.4    38   12.9   194    20.3   804.7    0.00 
 245    8:30   0.66   72.3    36   12.9   178    18.7   804.7    0.00 
 245    8:40   0.68   73.0    35   12.9   177    19.4   804.7    0.00 
 245    8:50   0.63   72.6    36   14.0   172    22.2   804.6    0.00 
 245    9:00   0.81   74.0    35   12.2   170    17.8   804.6    0.00 
 245    9:10   0.80   74.8    34   13.4   184    19.2   804.6    0.00 
 245    9:20   0.76   74.9    34   12.6   173    19.2   804.6    0.00 
 245    9:30   0.83   74.8    34   11.9   185    18.7   804.6    0.00 
 245    9:40   0.78   75.3    33   11.2   177    19.1   804.7    0.00 
 245    9:50   0.59   73.4    33   13.7   185    20.3   804.6    0.00 
 245   10:00   0.89   75.4    31   13.3   181    23.0   804.6    0.00 
 245   10:10   0.91   75.9    31   13.6   179    19.7   804.5    0.00 
 245   10:20   0.65   75.3    30   12.3   180    22.1   804.5    0.00 
 245   10:30   0.74   74.7    32   11.5   174    20.7   804.3    0.00 
 245   10:40   0.84   75.4    31   10.3   162    15.9   804.2    0.00 
 245   10:50   0.80   77.2    30    9.9   167    16.5   804.0    0.00 
 245   11:00   0.67   75.6    25   11.8   190    19.6   803.9    0.00 
 245   11:10   0.79   76.8    26   12.2   196    22.1   803.9    0.00 
 245   11:20   0.45   75.5    30    9.3   212    14.7   803.8    0.00 
 245   11:30   0.90   75.8    29   12.3   197    18.6   803.7    0.00 
 245   11:40   1.04   78.2    26   11.6   198    21.9   803.6    0.00 
 245   11:50   0.89   78.5    26   11.8   185    18.9   803.4    0.00 
 245   12:00   0.27   74.7    28   13.2   182    22.4   803.3    0.00 
 245   12:10   0.25   73.5    29   12.1   186    20.7   803.3    0.00 
 245   12:20   0.28   73.8    27   13.1   186    21.1   803.2    0.00 
 245   12:30   0.27   73.8    29    9.1   214    15.1   803.3    0.00 
 245   12:40   0.28   73.5    29    9.6   204    17.4   803.2    0.00 
 245   12:50   0.28   74.1    29   12.0   191    19.1   803.0    0.00 
 245   13:00   0.24   74.0    28   12.5   182    20.6   802.9    0.00 
 245   13:10   0.22   74.8    28    9.2   179    15.9   802.7    0.00 
 245   13:20   0.21   74.2    29   13.1   197    21.8   802.6    0.00 
 245   13:30   0.22   74.3    28   11.3   180    19.6   802.5    0.00 
 245   13:40   0.20   74.6    29   10.2   185    19.4   802.3    0.00 
 245   13:50   0.20   75.0    28   11.2   178    17.2   802.2    0.00 
 245   14:00   0.53   76.9    27   11.5   185    22.4   802.0    0.00 
 245   14:10   0.69   79.2    25   11.7   197    19.1   802.0    0.00 
 245   14:20   0.82   80.5    23   12.4   196    20.0   801.9    0.00 
 245   14:30   0.78   80.8    23   11.2   217    20.0   801.8    0.00 
 245   14:40   0.73   80.6    23   11.5   202    19.1   801.6    0.00 
 245   14:50   0.66   80.1    23   14.6   193    22.4   801.5    0.00 
 245   15:00   0.66   80.3    23   11.1   198    21.3   801.6    0.00 
 245   15:10   0.61   80.7    23    8.9   202    20.4   801.4    0.00 
 245   15:20   0.59   80.3    22   13.6   191    25.9   801.3    0.00 
 245   15:30   0.56   80.3    23   11.0   194    17.5   801.3    0.00 
 245   15:40   0.49   79.9    22   11.8   192    19.9   801.2    0.00 
 245   15:50   0.37   79.1    23   10.9   195    18.0   801.3    0.00 
 245   16:00   0.29   77.7    23    9.0   204    18.6   801.2    0.00 
 245   16:10   0.26   77.6    23    8.1   214    15.6   801.3    0.00 
 245   16:20   0.34   78.6    22    8.7   202    16.4   801.2    0.00 
 245   16:30   0.32   78.4    21   11.0   196    23.0   801.1    0.00 
 245   16:40   0.29   78.1    21   11.9   188    20.8   801.1    0.00 
 245   16:50   0.24   77.7    20   12.7   187    19.8   801.0    0.00 
 245   17:00   0.23   77.1    21   14.0   190    22.4   801.1    0.00 
 245   17:10   0.19   76.6    20   13.9   188    22.8   801.1    0.00 
 245   17:20   0.16   76.3    19   13.7   188    22.0   801.1    0.00 
 245   17:30   0.13   75.4    19   12.9   190    21.3   801.1    0.00 
 245   17:40   0.07   74.2    20   12.2   190    21.0   801.1    0.00 
 245   17:50   0.07   74.0    19   13.2   188    19.8   801.0    0.00 
 245   18:00   0.03   72.4    20    9.9   186    19.4   801.1    0.00 
 245   18:10   0.02   71.8    21   10.7   188    18.3   801.1    0.00 
 245   18:20   0.01   71.5    21   11.5   190    17.5   801.1    0.00 
 245   18:30   0.00   71.0    21   10.0   184    15.1   801.1    0.00 
 245   18:40   0.00   70.8    22   10.3   188    17.5   801.1    0.00 
 245   18:50   0.00   69.9    24    9.4   191    18.8   801.2    0.00 
 245   19:00   0.00   70.3    23   10.5   194    16.4   801.3    0.00 
 245   19:10   0.00   70.2    23   10.1   194    16.0   801.4    0.00 
 245   19:20   0.00   70.3    23   12.7   194    21.9   801.4    0.00 
 245   19:30   0.00   70.2    23   10.7   190    17.9   801.5    0.00 
 245   19:40   0.00   68.2    25    7.7   184    15.4   801.6    0.00 
 245   19:50   0.00   66.3    27    5.7   178     9.4   801.6    0.00 
 245   20:00   0.00   64.8    29    5.6   171    10.9   801.7    0.00 
 245   20:10   0.00   66.1    26    7.0   153    11.4   801.8    0.00 
 245   20:20   0.00   66.8    26    7.1   149    10.2   801.8    0.00 
 245   20:30   0.00   66.8    28    8.3   140    11.5   801.8    0.00 
 245   20:40   0.00   65.9    31    7.7   145    12.3   801.8    0.00 
 245   20:50   0.00   65.8    32    8.6   147    12.9   801.8    0.00 
 245   21:00   0.00   66.0    32    9.1   142    14.9   801.7    0.00 
 245   21:10   0.00   66.3    30    9.4   139    14.3   801.7    0.00 
 245   21:20   0.00   66.3    29   10.3   140    13.9   801.7    0.00 
 245   21:30   0.00   66.7    27   10.4   150    15.4   801.7    0.00 
 245   21:40   0.00   65.7    28    9.8   165    15.3   801.8    0.00 
 245   21:50   0.00   66.0    27   10.6   146    18.0   801.9    0.00 
 245   22:00   0.00   65.6    27   10.3   147    14.7   801.9    0.00 
 245   22:10   0.00   65.4    26   10.8   145    16.0   802.0    0.00 
 245   22:20   0.00   65.1    26    9.8   148    13.8   802.0    0.00 
 245   22:30   0.00   65.1    25   11.0   146    16.9   802.0    0.00 
 245   22:40   0.00   64.8    25   10.2   144    14.2   802.1    0.00 
 245   22:50   0.00   64.5    25    9.9   145    14.0   802.1    0.00 
 245   23:00   0.00   64.1    25   10.4   146    14.9   802.0    0.00 
 245   23:10   0.00   63.2    26   10.1   147    14.3   801.9    0.00 
 245   23:20   0.00   62.5    28   10.0   144    12.9   801.9    0.00 
 245   23:30   0.00   62.3    30    9.7   144    14.0   801.9    0.00 
 245   23:40   0.00   62.4    32    9.8   141    13.3   801.9    0.00 
 245   23:50   0.00   62.5    33   10.7   145    15.8   801.8    0.00 
 246    0:00   0.00   62.3    35   10.5   146    15.3   801.7    0.00 
 246    0:10   0.00   62.3    37   11.4   147    15.1   801.6    0.00 
 246    0:20   0.00   62.1    38   11.7   148    16.3   801.6    0.00 
 246    0:30   0.00   61.9    40   10.1   146    14.0   801.6    0.00 
 246    0:40   0.00   61.5    41   10.4   141    15.1   801.4    0.00 
 246    0:50   0.00   61.4    41   10.8   139    15.1   801.4    0.00 
 246    1:00   0.00   61.5    41   11.1   142    16.4   801.4    0.00 
 246    1:10   0.00   61.3    41   10.8   138    17.1   801.4    0.00 
 246    1:20   0.00   61.3    41   10.8   140    15.1   801.4    0.00 
 246    1:30   0.00   61.1    41   10.0   139    15.1   801.3    0.00 
 246    1:40   0.00   60.9    41    8.8   141    12.9   801.3    0.00 
 246    1:50   0.00   61.1    39    8.7   147    13.1   801.3    0.00 
 246    2:00   0.00   61.0    38    8.2   145    11.6   801.3    0.00 
 246    2:10   0.00   61.2    38    8.3   150    13.2   801.3    0.00 
 246    2:20   0.00   60.5    38    7.9   156    11.2   801.4    0.00 
 246    2:30   0.00   60.3    38    8.1   149    12.4   801.3    0.00 
 246    2:40   0.00   59.4    39    6.9   158    12.3   801.4    0.00 
 246    2:50   0.00   59.0    39    8.4   153    13.9   801.4    0.00 
 246    3:00   0.00   59.8    37    7.4   156    11.8   801.3    0.00 
 246    3:10   0.00   59.9    36    8.3   148    12.3   801.3    0.00 
 246    3:20   0.00   59.5    37    7.6   155    11.5   801.3    0.00 
 246    3:30   0.00   59.4    38    7.6   150    12.1   801.3    0.00 
 246    3:40   0.00   59.1    38    8.5   153    12.5   801.3    0.00 
 246    3:50   0.00   59.2    38    6.9   156     9.9   801.3    0.00 
 246    4:00   0.00   58.7    39    7.0   153    12.9   801.3    0.00 
 246    4:10   0.00   58.0    40    7.1   155    11.8   801.3    0.00 
 246    4:20   0.00   58.0    40    7.6   153    10.2   801.3    0.00 
 246    4:30   0.00   57.8    39    6.9   146    11.2   801.3    0.00 
 246    4:40   0.00   57.3    40    6.8   147    10.3   801.3    0.00 
 246    4:50   0.00   57.0    41    7.0   148    10.0   801.3    0.00 
 246    5:00   0.00   57.3    41    8.2   143    11.6   801.3    0.00 
 246    5:10   0.00   57.6    41    8.8   143    12.7   801.2    0.00 
 246    5:20   0.00   57.7    41    9.5   145    12.6   801.2    0.00 
 246    5:30   0.01   58.2    40    9.9   147    13.9   801.2    0.00 
 246    5:40   0.01   58.6    40   10.3   148    15.1   801.2    0.00 
 246    5:50   0.01   58.4    40   10.0   146    13.3   801.2    0.00 
 246    6:00   0.01   58.1    41    9.9   146    14.0   801.3    0.00 
 246    6:10   0.02   58.4    41   10.6   148    15.1   801.3    0.00 
 246    6:20   0.04   58.0    41    9.7   143    13.9   801.4    0.00 
 246    6:30   0.19   59.3    40   10.9   144    15.2   801.3    0.00 
 246    6:40   0.23   61.6    37   10.9   152    16.7   801.3    0.00 
 246    6:50   0.26   62.8    35   10.2   149    15.3   801.4    0.00 
 246    7:00   0.30   63.6    34   11.2   149    15.8   801.4    0.00 
 246    7:10   0.33   64.5    33   11.5   148    16.2   801.4    0.00 
 246    7:20   0.36   65.4    32   10.2   158    16.3   801.4    0.00 
 246    7:30   0.40   66.6    32   10.4   162    16.8   801.5    0.00 
 246    7:40   0.43   67.4    31   10.2   172    18.2   801.5    0.00 
 246    7:50   0.47   68.5    30    9.5   162    15.1   801.6    0.00 

Return to Steptoe Valley WMA graphs page.


Western Regional Climate Center,wrcc@dri.edu